createdAt,value
2022-10-13T00:00:50.833Z,14.28
2022-10-13T00:03:18.014Z,14.38
2022-10-13T00:05:47.063Z,14.31
2022-10-13T00:08:15.751Z,14.30
2022-10-13T00:10:43.868Z,14.34
2022-10-13T00:13:10.603Z,14.36
2022-10-13T00:15:38.591Z,14.38
2022-10-13T00:18:05.701Z,14.31
2022-10-13T00:20:32.492Z,14.29
2022-10-13T00:22:59.291Z,14.31
2022-10-13T00:25:26.187Z,14.34
2022-10-13T00:27:54.326Z,14.36
2022-10-13T00:30:21.204Z,14.32
2022-10-13T00:32:47.990Z,14.39
2022-10-13T00:35:14.735Z,14.45
2022-10-13T00:37:41.472Z,14.40
2022-10-13T00:40:09.132Z,14.38
2022-10-13T00:42:35.963Z,14.37
2022-10-13T00:45:19.726Z,14.46
2022-10-13T00:47:49.693Z,14.49
2022-10-13T00:50:20.004Z,14.46
2022-10-13T00:52:48.531Z,14.49
2022-10-13T00:55:20.104Z,14.48
2022-10-13T00:57:48.775Z,14.50
2022-10-13T01:00:17.232Z,14.55
2022-10-13T01:02:43.993Z,14.52
2022-10-13T01:05:10.788Z,14.54
2022-10-13T01:07:37.605Z,14.50
2022-10-13T01:10:05.172Z,14.61
2022-10-13T01:12:44.426Z,14.66
2022-10-13T01:15:17.276Z,14.69
2022-10-13T01:17:57.000Z,14.77
2022-10-13T01:20:55.985Z,14.81
2022-10-13T01:23:41.925Z,14.84
2022-10-13T01:26:33.641Z,14.94
2022-10-13T01:29:17.064Z,14.90
2022-10-13T01:31:51.264Z,14.88
2022-10-13T01:34:23.870Z,14.90
2022-10-13T01:36:57.606Z,14.97
2022-10-13T01:39:32.441Z,15.02
2022-10-13T01:42:13.088Z,15.07
2022-10-13T01:44:46.005Z,15.04
2022-10-13T02:00:22.633Z,14.88
2022-10-13T02:03:03.749Z,14.96
2022-10-13T02:05:41.744Z,14.97
2022-10-13T02:08:14.267Z,14.92
2022-10-13T02:10:47.349Z,14.96
2022-10-13T02:13:17.800Z,14.95
2022-10-13T02:15:51.653Z,14.92
2022-10-13T02:18:20.345Z,14.94
2022-10-13T02:20:47.930Z,14.89
2022-10-13T02:23:16.918Z,14.89
2022-10-13T02:25:44.564Z,14.95
2022-10-13T02:28:14.344Z,14.92
2022-10-13T02:33:27.906Z,14.71
2022-10-13T02:35:54.752Z,14.63
2022-10-13T02:41:42.415Z,14.63
2022-10-13T02:44:09.650Z,14.62
2022-10-13T02:46:36.509Z,14.72
2022-10-13T02:49:04.739Z,14.77
2022-10-13T02:54:07.372Z,14.73
2022-10-13T02:59:32.748Z,14.73
2022-10-13T03:02:31.386Z,14.73
2022-10-13T03:04:59.538Z,14.73
2022-10-13T03:07:26.357Z,14.72
2022-10-13T03:10:05.193Z,14.68
2022-10-13T03:12:32.261Z,14.60
2022-10-13T03:14:59.079Z,14.60
2022-10-13T03:20:34.190Z,14.68
2022-10-13T03:23:01.005Z,14.66
2022-10-13T03:25:27.913Z,14.61
2022-10-13T03:31:10.889Z,14.70
2022-10-13T03:36:24.645Z,14.82
2022-10-13T03:38:51.465Z,14.74
2022-10-13T03:44:08.051Z,14.65
2022-10-13T03:46:34.854Z,14.74
2022-10-13T03:49:01.674Z,14.73
2022-10-13T03:51:29.819Z,14.69
2022-10-13T03:53:56.633Z,14.65
2022-10-13T03:56:26.639Z,14.61
2022-10-13T03:58:55.525Z,14.59
2022-10-13T04:01:24.269Z,14.74
2022-10-13T04:03:52.909Z,14.71
2022-10-13T04:09:20.097Z,14.67
2022-10-13T04:11:50.109Z,14.69
2022-10-13T04:14:16.869Z,14.66
2022-10-13T04:16:43.701Z,14.76
2022-10-13T04:19:13.132Z,14.70
2022-10-13T04:21:41.134Z,14.69
2022-10-13T04:24:11.668Z,14.61
2022-10-13T04:26:40.371Z,14.64
2022-10-13T04:29:08.841Z,14.51
2022-10-13T04:31:36.329Z,14.53
2022-10-13T04:34:03.152Z,14.52
2022-10-13T04:36:30.082Z,14.52
2022-10-13T04:38:56.868Z,14.49
2022-10-13T04:41:23.738Z,14.43
2022-10-13T04:43:53.486Z,14.49
2022-10-13T04:46:22.132Z,14.51
2022-10-13T04:48:49.818Z,14.38
2022-10-13T04:51:20.087Z,14.31
2022-10-13T04:53:47.591Z,14.42
2022-10-13T04:56:16.637Z,14.34
2022-10-13T04:58:45.179Z,14.42
2022-10-13T05:01:21.490Z,14.38
2022-10-13T05:03:51.428Z,14.25
2022-10-13T05:06:20.637Z,14.31
2022-10-13T05:08:47.614Z,14.42
2022-10-13T05:11:14.439Z,14.43
2022-10-13T05:13:41.214Z,14.37
2022-10-13T05:16:09.521Z,14.46
2022-10-13T05:18:38.010Z,14.36
2022-10-13T05:21:09.234Z,14.39
2022-10-13T05:23:36.106Z,14.28
2022-10-13T05:26:04.567Z,14.19
2022-10-13T05:28:31.390Z,14.27
2022-10-13T05:30:58.321Z,14.25
2022-10-13T05:33:25.282Z,14.22
2022-10-13T05:35:53.561Z,14.27
2022-10-13T05:38:25.171Z,14.22
2022-10-13T05:40:52.735Z,14.15
2022-10-13T05:43:19.469Z,14.24
2022-10-13T05:45:46.352Z,14.09
2022-10-13T05:48:13.050Z,14.11
2022-10-13T05:50:41.343Z,14.14
2022-10-13T05:53:09.466Z,14.04
2022-10-13T05:55:36.267Z,14.07
2022-10-13T05:58:03.041Z,14.05
2022-10-13T06:00:30.044Z,14.01
2022-10-13T06:03:03.901Z,13.96
2022-10-13T06:05:32.969Z,13.92
2022-10-13T06:08:00.367Z,13.88
2022-10-13T06:10:29.215Z,13.94
2022-10-13T06:12:55.951Z,13.97
2022-10-13T06:15:27.829Z,13.88
2022-10-13T06:17:55.052Z,13.85
2022-10-13T06:20:22.095Z,13.91
2022-10-13T06:22:50.435Z,13.96
2022-10-13T06:25:17.549Z,13.99
2022-10-13T06:27:45.692Z,13.97
2022-10-13T06:30:12.873Z,13.89
2022-10-13T06:32:39.671Z,13.95
2022-10-13T06:35:07.503Z,14.03
2022-10-13T06:37:34.712Z,14.06
2022-10-13T06:40:01.614Z,14.11
2022-10-13T06:42:31.748Z,14.17
2022-10-13T06:44:59.934Z,14.26
2022-10-13T06:47:26.799Z,14.28
2022-10-13T06:49:53.583Z,14.39
2022-10-13T06:52:21.024Z,14.42
2022-10-13T06:54:48.179Z,14.45
2022-10-13T06:57:14.991Z,14.45
2022-10-13T06:59:41.744Z,14.41
2022-10-13T07:02:11.196Z,14.52
2022-10-13T07:04:38.033Z,14.59
2022-10-13T07:07:04.783Z,14.60
2022-10-13T07:09:31.705Z,14.55
2022-10-13T07:11:58.487Z,14.67
2022-10-13T07:14:25.526Z,14.62
2022-10-13T07:16:52.340Z,14.64
2022-10-13T07:19:20.608Z,14.68
2022-10-13T07:21:47.403Z,14.71
2022-10-13T07:24:14.798Z,14.69
2022-10-13T07:26:41.568Z,14.71
2022-10-13T07:29:09.130Z,14.77
2022-10-13T07:31:36.158Z,14.59
2022-10-13T07:34:04.992Z,14.62
2022-10-13T07:36:33.543Z,14.66
2022-10-13T07:39:01.235Z,14.73
2022-10-13T07:41:28.105Z,14.73
2022-10-13T07:43:55.460Z,14.68
2022-10-13T07:46:22.885Z,14.58
2022-10-13T07:48:49.724Z,14.56
2022-10-13T07:51:16.541Z,14.67
2022-10-13T07:53:46.583Z,14.74
2022-10-13T07:56:14.677Z,14.70
2022-10-13T07:58:43.270Z,14.77
2022-10-13T08:01:10.614Z,14.68
2022-10-13T08:03:38.334Z,14.72
2022-10-13T08:06:06.251Z,14.69
2022-10-13T08:08:33.718Z,14.76
2022-10-13T08:11:02.968Z,14.76
2022-10-13T08:13:29.785Z,14.90
2022-10-13T08:16:00.464Z,14.84
2022-10-13T08:18:28.018Z,14.94
2022-10-13T08:21:04.213Z,14.98
2022-10-13T08:23:37.596Z,14.98
2022-10-13T08:26:06.016Z,15.06
2022-10-13T08:28:32.872Z,14.96
2022-10-13T08:30:59.840Z,14.82
2022-10-13T08:33:27.029Z,14.75
2022-10-13T08:35:54.034Z,14.73
2022-10-13T08:38:20.926Z,14.74
2022-10-13T08:40:49.044Z,14.81
2022-10-13T08:43:20.040Z,14.90
2022-10-13T08:45:49.682Z,14.96
2022-10-13T08:48:20.005Z,15.15
2022-10-13T08:50:51.293Z,15.18
2022-10-13T08:53:25.796Z,15.32
2022-10-13T08:55:56.474Z,15.45
2022-10-13T08:58:28.193Z,15.50
2022-10-13T09:01:05.601Z,15.63
2022-10-13T09:03:32.577Z,15.66
2022-10-13T09:06:10.667Z,15.77
2022-10-13T09:08:41.638Z,15.61
2022-10-13T09:11:10.886Z,15.54
2022-10-13T09:13:39.500Z,15.73
2022-10-13T09:16:07.530Z,15.72
2022-10-13T09:18:34.611Z,15.56
2022-10-13T09:21:20.553Z,15.77
2022-10-13T09:23:50.231Z,15.64
2022-10-13T09:26:20.443Z,15.58
2022-10-13T09:28:49.323Z,15.74
2022-10-13T09:31:21.517Z,15.83
2022-10-13T09:33:57.768Z,16.12
2022-10-13T09:36:24.602Z,16.15
2022-10-13T09:39:08.031Z,16.38
2022-10-13T09:41:36.108Z,16.50
2022-10-13T09:44:17.644Z,16.44
2022-10-13T09:46:51.740Z,16.54
2022-10-13T09:49:30.586Z,16.32
2022-10-13T09:52:02.920Z,16.41
2022-10-13T09:54:43.996Z,16.62
2022-10-13T09:57:17.696Z,16.48
2022-10-13T09:59:50.153Z,16.66
2022-10-13T10:02:33.070Z,16.48
2022-10-13T10:05:14.555Z,16.59
2022-10-13T10:07:41.414Z,16.77
2022-10-13T10:10:23.280Z,16.87
2022-10-13T10:12:50.924Z,16.69
2022-10-13T10:15:23.306Z,16.62
2022-10-13T10:17:55.956Z,16.66
2022-10-13T10:20:41.854Z,16.58
2022-10-13T10:23:14.574Z,16.65
2022-10-13T10:25:44.932Z,16.79
2022-10-13T10:28:38.408Z,16.92
2022-10-13T10:31:18.747Z,17.09
2022-10-13T10:33:56.171Z,17.11
2022-10-13T10:36:27.327Z,17.12
2022-10-13T10:39:00.197Z,17.12
2022-10-13T10:41:41.281Z,17.20
2022-10-13T10:44:11.495Z,17.33
2022-10-13T10:46:44.430Z,17.31
2022-10-13T10:49:18.130Z,17.10
2022-10-13T10:51:45.631Z,16.86
2022-10-13T10:54:27.551Z,16.93
2022-10-13T10:56:58.488Z,16.98
2022-10-13T10:59:37.029Z,16.72
2022-10-13T11:02:19.544Z,16.76
2022-10-13T11:04:48.575Z,16.93
2022-10-13T11:07:55.068Z,16.96
2022-10-13T11:10:22.780Z,17.17
2022-10-13T11:13:22.407Z,17.17
2022-10-13T11:15:49.778Z,17.04
2022-10-13T11:18:59.200Z,16.98
2022-10-13T11:21:26.280Z,17.21
2022-10-13T11:23:53.192Z,17.25
2022-10-13T11:26:32.390Z,16.94
2022-10-13T11:28:59.950Z,16.77
2022-10-13T11:31:47.103Z,16.56
2022-10-13T11:34:28.913Z,16.63
2022-10-13T11:36:58.475Z,16.73
2022-10-13T11:39:55.389Z,16.65
2022-10-13T11:42:43.770Z,16.79
2022-10-13T11:45:23.490Z,16.92
2022-10-13T11:50:41.374Z,17.08
2022-10-13T11:53:18.827Z,16.99
2022-10-13T11:55:50.482Z,16.97
2022-10-13T11:58:20.248Z,16.68
2022-10-13T12:00:55.276Z,16.69
2022-10-13T12:03:25.849Z,16.82
2022-10-13T12:05:57.573Z,16.72
2022-10-13T12:08:25.784Z,16.98
2022-10-13T12:10:57.228Z,16.86
2022-10-13T12:13:26.732Z,16.82
2022-10-13T12:16:03.134Z,16.89
2022-10-13T12:18:34.297Z,16.91
2022-10-13T12:21:04.951Z,17.02
2022-10-13T12:23:33.302Z,17.17
2022-10-13T12:26:00.835Z,17.02
2022-10-13T12:28:31.072Z,16.97
2022-10-13T12:30:59.943Z,16.91
2022-10-13T12:33:31.549Z,16.92
2022-10-13T12:36:17.773Z,17.01
2022-10-13T12:38:49.426Z,17.01
2022-10-13T12:41:19.389Z,16.90
2022-10-13T12:43:46.794Z,16.94
2022-10-13T12:46:13.682Z,17.06
2022-10-13T12:48:40.521Z,16.87
2022-10-13T12:51:18.894Z,16.85
2022-10-13T12:53:47.083Z,16.90
2022-10-13T12:56:28.757Z,17.00
2022-10-13T12:58:57.203Z,17.28
2022-10-13T13:01:30.700Z,17.28
2022-10-13T13:04:00.437Z,17.17
2022-10-13T13:06:54.627Z,17.29
2022-10-13T13:09:24.970Z,17.20
2022-10-13T13:12:12.179Z,17.08
2022-10-13T13:14:40.721Z,17.04
2022-10-13T13:17:12.295Z,17.25
2022-10-13T13:19:40.311Z,17.31
2022-10-13T13:22:08.769Z,17.33
2022-10-13T13:24:40.206Z,17.47
2022-10-13T13:27:20.495Z,17.23
2022-10-13T13:29:47.984Z,17.38
2022-10-13T13:32:19.869Z,17.30
2022-10-13T13:34:47.459Z,17.23
2022-10-13T13:37:23.076Z,17.21
2022-10-13T13:39:50.304Z,17.37
2022-10-13T13:42:17.169Z,17.45
2022-10-13T13:44:44.146Z,17.50
2022-10-13T13:47:20.137Z,17.52
2022-10-13T13:49:48.093Z,17.49
2022-10-13T13:52:16.798Z,17.42
2022-10-13T13:54:43.650Z,17.35
2022-10-13T13:57:11.703Z,17.35
2022-10-13T13:59:39.119Z,17.65
2022-10-13T14:02:08.123Z,17.83
2022-10-13T14:04:34.987Z,17.64
2022-10-13T14:07:01.974Z,17.47
2022-10-13T14:09:30.432Z,17.41
2022-10-13T14:11:57.203Z,17.33
2022-10-13T14:14:24.289Z,17.25
2022-10-13T14:16:51.052Z,17.20
2022-10-13T14:19:17.872Z,16.95
2022-10-13T14:21:46.029Z,16.97
2022-10-13T14:24:13.485Z,16.78
2022-10-13T14:26:41.703Z,16.91
2022-10-13T14:29:08.656Z,16.95
2022-10-13T14:31:35.584Z,17.09
2022-10-13T14:34:02.388Z,17.00
2022-10-13T14:36:29.305Z,17.00
2022-10-13T14:38:56.163Z,16.87
2022-10-13T14:41:23.341Z,16.87
2022-10-13T14:43:54.633Z,16.87
2022-10-13T14:46:22.321Z,16.97
2022-10-13T14:48:49.689Z,17.01
2022-10-13T14:51:17.404Z,16.94
2022-10-13T14:56:55.942Z,16.91
2022-10-13T14:59:24.796Z,16.88
2022-10-13T15:01:51.552Z,16.89
2022-10-13T15:04:18.537Z,16.88
2022-10-13T15:06:45.351Z,16.80
2022-10-13T15:09:13.017Z,16.75
2022-10-13T15:12:01.300Z,16.63
2022-10-13T15:14:29.427Z,16.70
2022-10-13T15:19:55.400Z,16.54
2022-10-13T15:38:28.690Z,16.36
2022-10-13T15:43:33.217Z,16.32
2022-10-13T15:46:02.231Z,16.30
2022-10-13T15:48:29.196Z,16.26
2022-10-13T15:50:56.151Z,16.31
2022-10-13T15:56:22.955Z,16.31
2022-10-13T15:58:49.739Z,16.27
2022-10-13T16:01:16.622Z,16.25
2022-10-13T16:03:43.782Z,16.26
2022-10-13T16:06:12.916Z,16.22
2022-10-13T16:08:42.538Z,16.20
2022-10-13T16:11:10.202Z,16.22
2022-10-13T16:13:38.692Z,16.14
2022-10-13T16:16:05.852Z,16.12
2022-10-13T16:18:34.767Z,16.13
2022-10-13T16:21:08.163Z,16.17
2022-10-13T16:23:34.931Z,16.19
2022-10-13T16:26:02.190Z,16.23
2022-10-13T16:28:28.992Z,16.25
2022-10-13T16:30:57.158Z,16.29
2022-10-13T16:33:23.931Z,16.24
2022-10-13T16:35:50.660Z,16.06
2022-10-13T16:38:17.425Z,16.06
2022-10-13T16:40:44.140Z,16.11
2022-10-13T16:43:10.845Z,16.07
2022-10-13T16:45:58.692Z,16.03
2022-10-13T16:48:25.822Z,16.08
2022-10-13T16:50:52.601Z,16.08
2022-10-13T16:53:19.538Z,16.11
2022-10-13T16:55:46.622Z,16.11
2022-10-13T16:58:13.377Z,16.07
2022-10-13T17:00:40.884Z,16.07
2022-10-13T17:03:07.962Z,16.02
2022-10-13T17:05:36.358Z,16.10
2022-10-13T17:08:03.114Z,16.12
2022-10-13T17:10:29.903Z,16.13
2022-10-13T17:12:56.766Z,16.11
2022-10-13T17:15:24.258Z,16.10
2022-10-13T17:17:51.166Z,16.09
2022-10-13T17:20:18.282Z,16.08
2022-10-13T17:22:46.382Z,16.01
2022-10-13T17:25:13.579Z,16.03
2022-10-13T17:27:40.443Z,15.99
2022-10-13T17:30:08.269Z,15.90
2022-10-13T17:32:37.553Z,15.93
2022-10-13T17:35:04.903Z,16.01
2022-10-13T17:37:31.773Z,16.05
2022-10-13T17:39:59.984Z,16.00
2022-10-13T17:42:28.719Z,15.99
2022-10-13T17:44:55.462Z,15.95
2022-10-13T17:47:22.675Z,16.02
2022-10-13T17:49:50.014Z,16.02
2022-10-13T17:52:16.777Z,16.03
2022-10-13T17:54:43.592Z,16.03
2022-10-13T17:57:11.768Z,15.98
2022-10-13T17:59:38.543Z,15.86
2022-10-13T18:02:05.367Z,15.92
2022-10-13T18:04:32.191Z,16.02
2022-10-13T18:06:58.966Z,15.96
2022-10-13T18:09:25.801Z,15.94
2022-10-13T18:11:53.594Z,15.96
2022-10-13T18:14:23.478Z,15.90
2022-10-13T18:16:50.591Z,15.84
2022-10-13T18:19:17.452Z,15.89
2022-10-13T18:21:44.368Z,15.91
2022-10-13T18:24:11.818Z,15.87
2022-10-13T18:26:39.106Z,15.88
2022-10-13T18:29:07.971Z,15.74
2022-10-13T18:31:38.295Z,15.73
2022-10-13T18:34:07.815Z,15.76
2022-10-13T18:36:36.485Z,15.84
2022-10-13T18:39:06.349Z,15.78
2022-10-13T18:41:35.513Z,15.80
2022-10-13T18:44:03.981Z,15.83
2022-10-13T18:46:30.795Z,15.82
2022-10-13T18:48:58.892Z,15.85
2022-10-13T18:51:25.896Z,15.86
2022-10-13T18:53:52.846Z,15.84
2022-10-13T18:56:22.496Z,15.86
2022-10-13T19:01:24.683Z,16.00
2022-10-13T19:03:53.036Z,16.02
2022-10-13T19:06:27.141Z,15.97
2022-10-13T19:08:56.189Z,15.98
2022-10-13T19:11:23.974Z,15.90
2022-10-13T19:13:51.688Z,15.94
2022-10-13T19:16:20.703Z,15.95
2022-10-13T19:18:48.784Z,15.90
2022-10-13T19:21:16.313Z,15.94
2022-10-13T19:23:44.514Z,15.94
2022-10-13T19:26:15.126Z,15.91
2022-10-13T19:28:42.506Z,15.95
2022-10-13T19:31:10.394Z,15.96
2022-10-13T19:33:43.492Z,15.93
2022-10-13T19:36:19.314Z,15.90
2022-10-13T19:38:47.478Z,15.86
2022-10-13T19:41:14.554Z,15.78
2022-10-13T19:43:41.282Z,15.79
2022-10-13T19:46:08.609Z,15.85
2022-10-13T19:48:35.638Z,15.81
2022-10-13T19:51:04.655Z,15.74
2022-10-13T19:53:31.451Z,15.78
2022-10-13T19:55:59.584Z,15.76
2022-10-13T19:58:26.444Z,15.73
2022-10-13T20:00:53.242Z,15.71
2022-10-13T20:03:20.124Z,15.72
2022-10-13T20:05:46.777Z,15.62
2022-10-13T20:08:13.886Z,15.57
2022-10-13T20:10:42.130Z,15.61
2022-10-13T20:13:11.533Z,15.58
2022-10-13T20:15:39.937Z,15.73
2022-10-13T20:18:08.379Z,15.73
2022-10-13T20:20:35.780Z,15.75
2022-10-13T20:23:02.505Z,15.76
2022-10-13T20:25:29.262Z,15.73
2022-10-13T20:27:56.146Z,15.73
2022-10-13T20:30:24.292Z,15.67
2022-10-13T20:32:51.346Z,15.67
2022-10-13T20:35:18.210Z,15.57
2022-10-13T20:37:44.977Z,15.64
2022-10-13T20:40:12.066Z,15.65
2022-10-13T20:42:39.293Z,15.66
2022-10-13T20:45:07.119Z,15.73
2022-10-13T20:47:35.191Z,15.70
2022-10-13T20:50:02.007Z,15.77
2022-10-13T20:52:28.814Z,15.83
2022-10-13T20:54:55.558Z,15.86
2022-10-13T20:57:22.630Z,15.90
2022-10-13T20:59:49.972Z,15.86
2022-10-13T21:02:17.122Z,15.79
2022-10-13T21:04:45.402Z,15.89
2022-10-13T21:07:12.129Z,15.96
2022-10-13T21:09:38.987Z,16.03
2022-10-13T21:12:06.278Z,15.93
2022-10-13T21:14:33.062Z,15.92
2022-10-13T21:17:00.004Z,15.85
2022-10-13T21:19:29.149Z,15.96
2022-10-13T21:21:57.488Z,15.71
2022-10-13T21:24:24.232Z,15.96
2022-10-13T21:26:51.052Z,16.04
2022-10-13T21:29:17.808Z,16.04
2022-10-13T21:31:44.610Z,16.02
2022-10-13T21:34:12.401Z,16.03
2022-10-13T21:36:43.971Z,15.98
2022-10-13T21:39:12.210Z,16.04
2022-10-13T21:41:39.188Z,16.12
2022-10-13T21:44:05.978Z,16.09
2022-10-13T21:46:34.961Z,16.05
2022-10-13T21:49:04.857Z,16.03
2022-10-13T21:51:34.061Z,16.05
2022-10-13T21:54:03.406Z,16.04
2022-10-13T21:56:32.971Z,16.04
2022-10-13T21:59:00.740Z,16.05
2022-10-13T22:01:27.896Z,16.11
2022-10-13T22:03:56.426Z,16.00
2022-10-13T22:06:24.096Z,16.04
2022-10-13T22:08:53.500Z,16.08
2022-10-13T22:11:21.407Z,16.07
2022-10-13T22:13:49.841Z,16.03
2022-10-13T22:16:19.004Z,16.00
2022-10-13T22:18:45.861Z,16.01
2022-10-13T22:21:15.113Z,16.08
2022-10-13T22:23:42.390Z,16.09
2022-10-13T22:26:09.519Z,16.09
2022-10-13T22:28:37.578Z,16.07
2022-10-13T22:31:06.909Z,16.08
2022-10-13T22:33:35.974Z,16.03
2022-10-13T22:36:07.122Z,16.11
2022-10-13T22:38:34.227Z,16.10
2022-10-13T22:41:02.017Z,16.13
2022-10-13T22:43:29.980Z,16.15
2022-10-13T22:45:56.834Z,16.13
2022-10-13T22:48:24.941Z,16.17
2022-10-13T22:50:51.755Z,16.10
2022-10-13T22:53:18.479Z,16.12
2022-10-13T22:55:45.416Z,16.12
2022-10-13T22:58:12.520Z,16.06
2022-10-13T23:00:42.451Z,16.08
2022-10-13T23:03:14.128Z,16.16
2022-10-13T23:05:43.178Z,16.13
2022-10-13T23:08:11.196Z,15.98
2022-10-13T23:10:37.968Z,16.16
2022-10-13T23:13:05.608Z,16.17
2022-10-13T23:15:32.439Z,16.23
2022-10-13T23:17:59.202Z,16.24
2022-10-13T23:20:26.136Z,16.20
2022-10-13T23:22:54.296Z,16.08
2022-10-13T23:25:21.339Z,16.07
2022-10-13T23:27:50.582Z,16.13
2022-10-13T23:30:17.578Z,16.15
2022-10-13T23:32:44.365Z,16.06
2022-10-13T23:35:11.339Z,16.15
2022-10-13T23:37:38.315Z,16.15
2022-10-13T23:40:07.742Z,16.05
2022-10-13T23:42:34.653Z,16.17
2022-10-13T23:45:01.620Z,16.08
2022-10-13T23:47:28.354Z,16.13
2022-10-13T23:49:55.196Z,16.18
2022-10-13T23:52:22.257Z,16.03
2022-10-13T23:54:49.122Z,16.03
2022-10-13T23:57:22.409Z,15.98
2022-10-13T23:59:49.439Z,16.00
